sensor_id;sensor_type;location;lat;lon;timestamp;P1;durP1;ratioP1;P2;durP2;ratioP2
32760;SDS011;19126;47.472;7.850;2023-04-03T00:01:20;17.77;;;13.13;;
32760;SDS011;19126;47.472;7.850;2023-04-03T00:03:49;15.30;;;12.32;;
32760;SDS011;19126;47.472;7.850;2023-04-03T00:06:17;11.02;;;9.80;;
32760;SDS011;19126;47.472;7.850;2023-04-03T00:08:47;9.38;;;8.35;;
32760;SDS011;19126;47.472;7.850;2023-04-03T00:11:20;8.20;;;6.90;;
32760;SDS011;19126;47.472;7.850;2023-04-03T00:13:49;7.00;;;5.88;;
32760;SDS011;19126;47.472;7.850;2023-04-03T00:16:21;6.45;;;5.53;;
32760;SDS011;19126;47.472;7.850;2023-04-03T00:18:52;7.38;;;5.15;;
32760;SDS011;19126;47.472;7.850;2023-04-03T00:21:22;6.43;;;5.82;;
32760;SDS011;19126;47.472;7.850;2023-04-03T00:23:51;6.03;;;4.88;;
32760;SDS011;19126;47.472;7.850;2023-04-03T00:26:23;5.47;;;4.87;;
32760;SDS011;19126;47.472;7.850;2023-04-03T00:28:51;5.80;;;5.07;;
32760;SDS011;19126;47.472;7.850;2023-04-03T00:31:21;5.13;;;4.57;;
32760;SDS011;19126;47.472;7.850;2023-04-03T00:33:52;7.97;;;5.07;;
32760;SDS011;19126;47.472;7.850;2023-04-03T00:36:23;8.95;;;5.35;;
32760;SDS011;19126;47.472;7.850;2023-04-03T00:38:55;5.03;;;4.53;;
32760;SDS011;19126;47.472;7.850;2023-04-03T00:41:28;4.75;;;4.03;;
32760;SDS011;19126;47.472;7.850;2023-04-03T00:43:57;4.75;;;4.15;;
32760;SDS011;19126;47.472;7.850;2023-04-03T00:46:25;6.13;;;4.18;;
32760;SDS011;19126;47.472;7.850;2023-04-03T00:48:57;5.32;;;4.82;;
32760;SDS011;19126;47.472;7.850;2023-04-03T00:51:28;5.57;;;4.10;;
32760;SDS011;19126;47.472;7.850;2023-04-03T00:53:58;4.95;;;4.50;;
32760;SDS011;19126;47.472;7.850;2023-04-03T00:56:31;4.78;;;4.20;;
32760;SDS011;19126;47.472;7.850;2023-04-03T00:59:00;5.38;;;4.43;;
32760;SDS011;19126;47.472;7.850;2023-04-03T01:06:47;4.85;;;3.95;;
32760;SDS011;19126;47.472;7.850;2023-04-03T01:09:23;6.25;;;4.30;;
32760;SDS011;19126;47.472;7.850;2023-04-03T01:14:53;6.07;;;5.32;;
32760;SDS011;19126;47.472;7.850;2023-04-03T01:17:30;6.40;;;5.25;;
32760;SDS011;19126;47.472;7.850;2023-04-03T01:23:49;9.52;;;5.70;;
32760;SDS011;19126;47.472;7.850;2023-04-03T01:26:45;6.22;;;4.90;;
32760;SDS011;19126;47.472;7.850;2023-04-03T01:29:17;6.72;;;5.10;;
32760;SDS011;19126;47.472;7.850;2023-04-03T01:31:48;7.00;;;5.25;;
32760;SDS011;19126;47.472;7.850;2023-04-03T01:37:20;6.00;;;5.32;;
32760;SDS011;19126;47.472;7.850;2023-04-03T01:42:35;10.38;;;6.95;;
32760;SDS011;19126;47.472;7.850;2023-04-03T01:45:13;8.48;;;5.72;;
32760;SDS011;19126;47.472;7.850;2023-04-03T01:47:52;7.30;;;5.00;;
32760;SDS011;19126;47.472;7.850;2023-04-03T01:50:26;6.65;;;4.90;;
32760;SDS011;19126;47.472;7.850;2023-04-03T01:52:58;6.28;;;5.18;;
32760;SDS011;19126;47.472;7.850;2023-04-03T01:55:42;7.88;;;5.57;;
32760;SDS011;19126;47.472;7.850;2023-04-03T01:58:12;6.90;;;5.10;;
32760;SDS011;19126;47.472;7.850;2023-04-03T02:00:48;6.95;;;5.00;;
32760;SDS011;19126;47.472;7.850;2023-04-03T02:03:28;6.18;;;4.53;;
32760;SDS011;19126;47.472;7.850;2023-04-03T02:06:00;6.80;;;5.40;;
32760;SDS011;19126;47.472;7.850;2023-04-03T02:08:33;7.05;;;5.25;;
32760;SDS011;19126;47.472;7.850;2023-04-03T02:11:20;5.20;;;4.60;;
32760;SDS011;19126;47.472;7.850;2023-04-03T02:14:03;5.63;;;4.47;;
32760;SDS011;19126;47.472;7.850;2023-04-03T02:16:35;7.28;;;3.95;;
32760;SDS011;19126;47.472;7.850;2023-04-03T02:19:09;5.85;;;4.38;;
32760;SDS011;19126;47.472;7.850;2023-04-03T02:21:46;4.88;;;4.38;;
32760;SDS011;19126;47.472;7.850;2023-04-03T02:24:24;7.13;;;4.82;;
32760;SDS011;19126;47.472;7.850;2023-04-03T02:27:02;7.07;;;4.97;;
32760;SDS011;19126;47.472;7.850;2023-04-03T02:29:32;4.80;;;4.30;;
32760;SDS011;19126;47.472;7.850;2023-04-03T02:32:08;6.47;;;5.60;;
32760;SDS011;19126;47.472;7.850;2023-04-03T02:34:39;6.80;;;4.60;;
32760;SDS011;19126;47.472;7.850;2023-04-03T02:37:13;7.10;;;4.15;;
32760;SDS011;19126;47.472;7.850;2023-04-03T02:39:44;5.28;;;4.32;;
32760;SDS011;19126;47.472;7.850;2023-04-03T02:42:11;6.95;;;5.18;;
32760;SDS011;19126;47.472;7.850;2023-04-03T02:44:39;5.30;;;4.80;;
32760;SDS011;19126;47.472;7.850;2023-04-03T02:47:07;5.78;;;4.80;;
32760;SDS011;19126;47.472;7.850;2023-04-03T02:49:34;5.75;;;4.35;;
32760;SDS011;19126;47.472;7.850;2023-04-03T02:52:13;6.45;;;4.85;;
32760;SDS011;19126;47.472;7.850;2023-04-03T02:54:47;5.97;;;4.70;;
32760;SDS011;19126;47.472;7.850;2023-04-03T02:57:17;7.65;;;4.78;;
32760;SDS011;19126;47.472;7.850;2023-04-03T02:59:46;5.40;;;4.05;;
32760;SDS011;19126;47.472;7.850;2023-04-03T03:02:16;5.18;;;4.22;;
32760;SDS011;19126;47.472;7.850;2023-04-03T03:04:43;4.85;;;4.35;;
32760;SDS011;19126;47.472;7.850;2023-04-03T03:07:12;6.07;;;4.38;;
32760;SDS011;19126;47.472;7.850;2023-04-03T03:09:39;5.28;;;4.70;;
32760;SDS011;19126;47.472;7.850;2023-04-03T03:12:07;5.40;;;4.47;;
32760;SDS011;19126;47.472;7.850;2023-04-03T03:14:34;5.10;;;4.53;;
32760;SDS011;19126;47.472;7.850;2023-04-03T03:17:02;5.55;;;4.40;;
32760;SDS011;19126;47.472;7.850;2023-04-03T03:19:32;7.63;;;4.55;;
32760;SDS011;19126;47.472;7.850;2023-04-03T03:21:59;8.88;;;3.70;;
32760;SDS011;19126;47.472;7.850;2023-04-03T03:24:28;4.72;;;4.10;;
32760;SDS011;19126;47.472;7.850;2023-04-03T03:26:55;8.88;;;5.25;;
32760;SDS011;19126;47.472;7.850;2023-04-03T03:29:22;6.90;;;4.30;;
32760;SDS011;19126;47.472;7.850;2023-04-03T03:31:50;4.85;;;4.35;;
32760;SDS011;19126;47.472;7.850;2023-04-03T03:34:17;5.80;;;4.45;;
32760;SDS011;19126;47.472;7.850;2023-04-03T03:36:45;5.32;;;3.90;;
32760;SDS011;19126;47.472;7.850;2023-04-03T03:39:12;5.55;;;4.55;;
32760;SDS011;19126;47.472;7.850;2023-04-03T03:41:41;5.05;;;4.22;;
32760;SDS011;19126;47.472;7.850;2023-04-03T03:44:09;6.10;;;4.75;;
32760;SDS011;19126;47.472;7.850;2023-04-03T03:46:36;5.07;;;4.57;;
32760;SDS011;19126;47.472;7.850;2023-04-03T03:49:03;4.75;;;4.05;;
32760;SDS011;19126;47.472;7.850;2023-04-03T03:51:31;5.75;;;4.63;;
32760;SDS011;19126;47.472;7.850;2023-04-03T03:53:58;6.55;;;4.40;;
32760;SDS011;19126;47.472;7.850;2023-04-03T03:56:25;5.78;;;4.47;;
32760;SDS011;19126;47.472;7.850;2023-04-03T03:58:54;5.05;;;4.13;;
32760;SDS011;19126;47.472;7.850;2023-04-03T04:01:22;6.28;;;4.53;;
32760;SDS011;19126;47.472;7.850;2023-04-03T04:03:50;5.22;;;4.72;;
32760;SDS011;19126;47.472;7.850;2023-04-03T04:06:19;5.32;;;4.43;;
32760;SDS011;19126;47.472;7.850;2023-04-03T04:08:46;5.55;;;4.82;;
32760;SDS011;19126;47.472;7.850;2023-04-03T04:11:13;7.38;;;4.70;;
32760;SDS011;19126;47.472;7.850;2023-04-03T04:13:41;7.13;;;5.22;;
32760;SDS011;19126;47.472;7.850;2023-04-03T04:16:10;5.85;;;4.68;;
32760;SDS011;19126;47.472;7.850;2023-04-03T04:18:37;11.57;;;5.07;;
32760;SDS011;19126;47.472;7.850;2023-04-03T04:21:05;7.78;;;5.80;;
32760;SDS011;19126;47.472;7.850;2023-04-03T04:23:32;7.35;;;6.20;;
32760;SDS011;19126;47.472;7.850;2023-04-03T04:25:59;9.13;;;6.80;;
32760;SDS011;19126;47.472;7.850;2023-04-03T04:28:26;7.53;;;6.65;;
32760;SDS011;19126;47.472;7.850;2023-04-03T04:30:54;6.78;;;6.07;;
32760;SDS011;19126;47.472;7.850;2023-04-03T04:33:23;7.88;;;6.72;;
32760;SDS011;19126;47.472;7.850;2023-04-03T04:35:50;8.68;;;6.47;;
32760;SDS011;19126;47.472;7.850;2023-04-03T04:38:18;8.65;;;6.80;;
32760;SDS011;19126;47.472;7.850;2023-04-03T04:40:46;8.18;;;6.35;;
32760;SDS011;19126;47.472;7.850;2023-04-03T04:43:14;8.73;;;7.20;;
32760;SDS011;19126;47.472;7.850;2023-04-03T04:45:42;12.93;;;8.27;;
32760;SDS011;19126;47.472;7.850;2023-04-03T04:48:10;9.90;;;8.00;;
32760;SDS011;19126;47.472;7.850;2023-04-03T04:50:42;10.20;;;7.72;;
32760;SDS011;19126;47.472;7.850;2023-04-03T04:53:09;8.55;;;6.60;;
32760;SDS011;19126;47.472;7.850;2023-04-03T04:55:36;11.18;;;8.40;;
32760;SDS011;19126;47.472;7.850;2023-04-03T04:58:03;8.60;;;7.43;;
32760;SDS011;19126;47.472;7.850;2023-04-03T05:00:31;11.57;;;7.47;;
32760;SDS011;19126;47.472;7.850;2023-04-03T05:02:58;10.20;;;7.53;;
32760;SDS011;19126;47.472;7.850;2023-04-03T05:05:25;10.20;;;8.35;;
32760;SDS011;19126;47.472;7.850;2023-04-03T05:07:54;10.38;;;8.18;;
32760;SDS011;19126;47.472;7.850;2023-04-03T05:10:22;11.93;;;9.85;;
32760;SDS011;19126;47.472;7.850;2023-04-03T05:12:49;12.10;;;9.40;;
32760;SDS011;19126;47.472;7.850;2023-04-03T05:15:16;14.63;;;9.23;;
32760;SDS011;19126;47.472;7.850;2023-04-03T05:17:44;12.90;;;9.38;;
32760;SDS011;19126;47.472;7.850;2023-04-03T05:20:12;11.35;;;9.35;;
32760;SDS011;19126;47.472;7.850;2023-04-03T05:22:39;12.80;;;9.90;;
32760;SDS011;19126;47.472;7.850;2023-04-03T05:25:09;13.85;;;10.35;;
32760;SDS011;19126;47.472;7.850;2023-04-03T05:27:37;14.05;;;10.57;;
32760;SDS011;19126;47.472;7.850;2023-04-03T05:30:05;13.60;;;9.80;;
32760;SDS011;19126;47.472;7.850;2023-04-03T05:32:34;14.73;;;10.43;;
32760;SDS011;19126;47.472;7.850;2023-04-03T05:35:04;13.90;;;10.43;;
32760;SDS011;19126;47.472;7.850;2023-04-03T05:37:33;13.63;;;10.23;;
32760;SDS011;19126;47.472;7.850;2023-04-03T05:40:02;15.68;;;10.43;;
32760;SDS011;19126;47.472;7.850;2023-04-03T05:42:33;12.27;;;9.55;;
32760;SDS011;19126;47.472;7.850;2023-04-03T05:45:02;13.82;;;10.13;;
32760;SDS011;19126;47.472;7.850;2023-04-03T05:47:31;14.02;;;9.48;;
32760;SDS011;19126;47.472;7.850;2023-04-03T05:49:58;14.55;;;10.57;;
32760;SDS011;19126;47.472;7.850;2023-04-03T05:52:26;16.83;;;10.77;;
32760;SDS011;19126;47.472;7.850;2023-04-03T05:54:56;12.32;;;9.13;;
32760;SDS011;19126;47.472;7.850;2023-04-03T05:57:26;14.07;;;10.20;;
32760;SDS011;19126;47.472;7.850;2023-04-03T05:59:56;15.55;;;10.43;;
32760;SDS011;19126;47.472;7.850;2023-04-03T06:02:26;16.13;;;9.65;;
32760;SDS011;19126;47.472;7.850;2023-04-03T06:04:54;16.40;;;11.00;;
32760;SDS011;19126;47.472;7.850;2023-04-03T06:07:22;13.70;;;10.55;;
32760;SDS011;19126;47.472;7.850;2023-04-03T06:09:53;12.02;;;9.10;;
32760;SDS011;19126;47.472;7.850;2023-04-03T06:12:22;11.98;;;9.65;;
32760;SDS011;19126;47.472;7.850;2023-04-03T06:14:50;13.27;;;9.55;;
32760;SDS011;19126;47.472;7.850;2023-04-03T06:17:19;11.35;;;8.25;;
32760;SDS011;19126;47.472;7.850;2023-04-03T06:19:47;15.32;;;9.30;;
32760;SDS011;19126;47.472;7.850;2023-04-03T06:22:14;10.90;;;8.15;;
32760;SDS011;19126;47.472;7.850;2023-04-03T06:24:42;11.50;;;7.95;;
32760;SDS011;19126;47.472;7.850;2023-04-03T06:27:11;12.77;;;9.00;;
32760;SDS011;19126;47.472;7.850;2023-04-03T06:29:39;9.90;;;8.18;;
32760;SDS011;19126;47.472;7.850;2023-04-03T06:32:06;11.18;;;8.55;;
32760;SDS011;19126;47.472;7.850;2023-04-03T06:34:37;19.70;;;8.35;;
32760;SDS011;19126;47.472;7.850;2023-04-03T06:37:04;15.38;;;8.27;;
32760;SDS011;19126;47.472;7.850;2023-04-03T06:39:32;14.60;;;8.93;;
32760;SDS011;19126;47.472;7.850;2023-04-03T06:42:02;13.15;;;9.48;;
32760;SDS011;19126;47.472;7.850;2023-04-03T06:44:30;11.63;;;8.55;;
32760;SDS011;19126;47.472;7.850;2023-04-03T06:46:58;12.13;;;8.35;;
32760;SDS011;19126;47.472;7.850;2023-04-03T06:49:26;12.07;;;8.45;;
32760;SDS011;19126;47.472;7.850;2023-04-03T06:51:55;9.70;;;7.57;;
32760;SDS011;19126;47.472;7.850;2023-04-03T06:54:23;10.00;;;7.30;;
32760;SDS011;19126;47.472;7.850;2023-04-03T06:56:50;10.10;;;7.18;;
32760;SDS011;19126;47.472;7.850;2023-04-03T06:59:18;9.38;;;7.47;;
32760;SDS011;19126;47.472;7.850;2023-04-03T07:01:45;13.68;;;8.60;;
32760;SDS011;19126;47.472;7.850;2023-04-03T07:04:12;10.50;;;7.72;;
32760;SDS011;19126;47.472;7.850;2023-04-03T07:06:40;9.80;;;7.72;;
32760;SDS011;19126;47.472;7.850;2023-04-03T07:09:09;12.45;;;7.55;;
32760;SDS011;19126;47.472;7.850;2023-04-03T07:11:38;9.98;;;7.38;;
32760;SDS011;19126;47.472;7.850;2023-04-03T07:14:06;9.10;;;7.10;;
32760;SDS011;19126;47.472;7.850;2023-04-03T07:16:34;12.18;;;7.80;;
32760;SDS011;19126;47.472;7.850;2023-04-03T07:19:01;10.15;;;7.22;;
32760;SDS011;19126;47.472;7.850;2023-04-03T07:21:29;10.45;;;7.22;;
32760;SDS011;19126;47.472;7.850;2023-04-03T07:23:56;8.25;;;6.40;;
32760;SDS011;19126;47.472;7.850;2023-04-03T07:26:25;24.30;;;7.35;;
32760;SDS011;19126;47.472;7.850;2023-04-03T07:28:52;9.88;;;7.20;;
32760;SDS011;19126;47.472;7.850;2023-04-03T07:31:20;11.10;;;6.50;;
32760;SDS011;19126;47.472;7.850;2023-04-03T07:33:48;12.48;;;6.60;;
32760;SDS011;19126;47.472;7.850;2023-04-03T07:36:16;7.72;;;5.57;;
32760;SDS011;19126;47.472;7.850;2023-04-03T07:38:46;9.57;;;5.75;;
32760;SDS011;19126;47.472;7.850;2023-04-03T07:41:14;6.13;;;5.05;;
32760;SDS011;19126;47.472;7.850;2023-04-03T07:43:47;10.82;;;5.72;;
32760;SDS011;19126;47.472;7.850;2023-04-03T07:46:15;6.05;;;4.90;;
32760;SDS011;19126;47.472;7.850;2023-04-03T07:48:43;7.45;;;4.97;;
32760;SDS011;19126;47.472;7.850;2023-04-03T07:51:11;6.72;;;4.85;;
32760;SDS011;19126;47.472;7.850;2023-04-03T07:53:39;11.60;;;6.43;;
32760;SDS011;19126;47.472;7.850;2023-04-03T07:56:07;5.15;;;4.65;;
32760;SDS011;19126;47.472;7.850;2023-04-03T07:58:35;7.78;;;5.20;;
32760;SDS011;19126;47.472;7.850;2023-04-03T08:01:04;6.95;;;4.97;;
32760;SDS011;19126;47.472;7.850;2023-04-03T08:03:32;6.93;;;5.32;;
32760;SDS011;19126;47.472;7.850;2023-04-03T08:06:01;8.52;;;5.07;;
32760;SDS011;19126;47.472;7.850;2023-04-03T08:08:30;7.10;;;4.55;;
32760;SDS011;19126;47.472;7.850;2023-04-03T08:10:58;14.63;;;5.00;;
32760;SDS011;19126;47.472;7.850;2023-04-03T08:13:27;7.88;;;4.63;;
32760;SDS011;19126;47.472;7.850;2023-04-03T08:15:56;6.93;;;4.97;;
32760;SDS011;19126;47.472;7.850;2023-04-03T08:18:28;5.47;;;4.57;;
32760;SDS011;19126;47.472;7.850;2023-04-03T08:20:56;7.05;;;4.43;;
32760;SDS011;19126;47.472;7.850;2023-04-03T08:23:24;7.35;;;5.03;;
32760;SDS011;19126;47.472;7.850;2023-04-03T08:25:51;6.72;;;4.63;;
32760;SDS011;19126;47.472;7.850;2023-04-03T08:28:19;5.90;;;5.22;;
32760;SDS011;19126;47.472;7.850;2023-04-03T08:30:46;11.75;;;5.18;;
32760;SDS011;19126;47.472;7.850;2023-04-03T08:33:13;7.97;;;4.90;;
32760;SDS011;19126;47.472;7.850;2023-04-03T08:35:42;7.82;;;5.18;;
32760;SDS011;19126;47.472;7.850;2023-04-03T08:38:12;12.57;;;4.75;;
32760;SDS011;19126;47.472;7.850;2023-04-03T08:40:39;6.57;;;4.63;;
32760;SDS011;19126;47.472;7.850;2023-04-03T08:43:19;5.97;;;4.72;;
32760;SDS011;19126;47.472;7.850;2023-04-03T08:45:58;6.95;;;5.05;;
32760;SDS011;19126;47.472;7.850;2023-04-03T08:48:32;7.55;;;5.00;;
32760;SDS011;19126;47.472;7.850;2023-04-03T08:51:04;6.25;;;5.53;;
32760;SDS011;19126;47.472;7.850;2023-04-03T08:53:43;6.85;;;4.43;;
32760;SDS011;19126;47.472;7.850;2023-04-03T08:56:22;7.37;;;5.20;;
32760;SDS011;19126;47.472;7.850;2023-04-03T08:58:55;13.55;;;6.00;;
32760;SDS011;19126;47.472;7.850;2023-04-03T09:01:27;12.25;;;5.30;;
32760;SDS011;19126;47.472;7.850;2023-04-03T09:04:01;13.95;;;4.50;;
32760;SDS011;19126;47.472;7.850;2023-04-03T09:06:40;5.72;;;4.63;;
32760;SDS011;19126;47.472;7.850;2023-04-03T09:09:14;5.85;;;4.75;;
32760;SDS011;19126;47.472;7.850;2023-04-03T09:12:04;5.10;;;4.05;;
32760;SDS011;19126;47.472;7.850;2023-04-03T09:14:42;8.63;;;4.50;;
32760;SDS011;19126;47.472;7.850;2023-04-03T09:17:26;4.30;;;3.42;;
32760;SDS011;19126;47.472;7.850;2023-04-03T09:20:11;3.53;;;3.13;;
32760;SDS011;19126;47.472;7.850;2023-04-03T09:22:53;4.65;;;3.92;;
32760;SDS011;19126;47.472;7.850;2023-04-03T09:25:21;3.78;;;3.25;;
32760;SDS011;19126;47.472;7.850;2023-04-03T09:27:52;5.10;;;3.30;;
32760;SDS011;19126;47.472;7.850;2023-04-03T09:30:20;3.45;;;3.13;;
32760;SDS011;19126;47.472;7.850;2023-04-03T09:32:52;3.97;;;2.90;;
32760;SDS011;19126;47.472;7.850;2023-04-03T09:35:23;5.45;;;2.90;;
32760;SDS011;19126;47.472;7.850;2023-04-03T09:37:58;3.47;;;2.85;;
32760;SDS011;19126;47.472;7.850;2023-04-03T09:40:33;4.13;;;3.08;;
32760;SDS011;19126;47.472;7.850;2023-04-03T09:43:24;10.43;;;4.03;;
32760;SDS011;19126;47.472;7.850;2023-04-03T09:45:56;5.18;;;3.40;;
32760;SDS011;19126;47.472;7.850;2023-04-03T09:48:49;5.57;;;3.13;;
32760;SDS011;19126;47.472;7.850;2023-04-03T09:51:18;5.72;;;3.30;;
32760;SDS011;19126;47.472;7.850;2023-04-03T09:53:47;5.78;;;2.58;;
32760;SDS011;19126;47.472;7.850;2023-04-03T09:56:21;3.97;;;3.20;;
32760;SDS011;19126;47.472;7.850;2023-04-03T09:59:05;4.68;;;2.80;;
32760;SDS011;19126;47.472;7.850;2023-04-03T10:01:42;5.65;;;3.22;;
32760;SDS011;19126;47.472;7.850;2023-04-03T10:04:21;5.68;;;3.33;;
32760;SDS011;19126;47.472;7.850;2023-04-03T10:06:50;5.75;;;3.20;;
32760;SDS011;19126;47.472;7.850;2023-04-03T10:09:24;3.63;;;3.10;;
32760;SDS011;19126;47.472;7.850;2023-04-03T10:11:57;3.42;;;2.83;;
32760;SDS011;19126;47.472;7.850;2023-04-03T10:14:29;5.93;;;3.05;;
32760;SDS011;19126;47.472;7.850;2023-04-03T10:17:00;4.05;;;3.40;;
32760;SDS011;19126;47.472;7.850;2023-04-03T10:19:41;6.60;;;3.40;;
32760;SDS011;19126;47.472;7.850;2023-04-03T10:22:15;4.10;;;2.92;;
32760;SDS011;19126;47.472;7.850;2023-04-03T10:24:52;5.47;;;2.88;;
32760;SDS011;19126;47.472;7.850;2023-04-03T10:27:34;4.35;;;3.55;;
32760;SDS011;19126;47.472;7.850;2023-04-03T10:30:17;4.45;;;3.22;;
32760;SDS011;19126;47.472;7.850;2023-04-03T10:32:58;4.32;;;3.03;;
32760;SDS011;19126;47.472;7.850;2023-04-03T10:35:44;4.38;;;3.20;;
32760;SDS011;19126;47.472;7.850;2023-04-03T10:38:24;4.45;;;3.28;;
32760;SDS011;19126;47.472;7.850;2023-04-03T10:43:47;3.42;;;3.00;;
32760;SDS011;19126;47.472;7.850;2023-04-03T10:46:23;4.13;;;2.80;;
32760;SDS011;19126;47.472;7.850;2023-04-03T10:49:03;4.72;;;3.13;;
32760;SDS011;19126;47.472;7.850;2023-04-03T10:51:43;3.13;;;2.83;;
32760;SDS011;19126;47.472;7.850;2023-04-03T10:54:16;3.33;;;3.00;;
32760;SDS011;19126;47.472;7.850;2023-04-03T10:56:53;2.90;;;2.53;;
32760;SDS011;19126;47.472;7.850;2023-04-03T10:59:28;3.75;;;2.50;;
32760;SDS011;19126;47.472;7.850;2023-04-03T11:01:59;6.43;;;3.00;;
32760;SDS011;19126;47.472;7.850;2023-04-03T11:04:34;3.13;;;2.58;;
32760;SDS011;19126;47.472;7.850;2023-04-03T11:07:10;3.47;;;2.53;;
32760;SDS011;19126;47.472;7.850;2023-04-03T11:09:44;4.13;;;2.83;;
32760;SDS011;19126;47.472;7.850;2023-04-03T11:14:51;3.10;;;2.75;;
32760;SDS011;19126;47.472;7.850;2023-04-03T11:17:23;3.50;;;2.65;;
32760;SDS011;19126;47.472;7.850;2023-04-03T11:20:00;3.17;;;2.58;;
32760;SDS011;19126;47.472;7.850;2023-04-03T11:22:36;3.95;;;2.95;;
32760;SDS011;19126;47.472;7.850;2023-04-03T11:25:14;5.47;;;2.90;;
32760;SDS011;19126;47.472;7.850;2023-04-03T11:27:51;5.63;;;2.53;;
32760;SDS011;19126;47.472;7.850;2023-04-03T11:30:23;4.00;;;2.35;;
32760;SDS011;19126;47.472;7.850;2023-04-03T11:33:03;2.90;;;2.50;;
32760;SDS011;19126;47.472;7.850;2023-04-03T11:35:47;3.40;;;2.53;;
32760;SDS011;19126;47.472;7.850;2023-04-03T11:38:19;4.68;;;2.47;;
32760;SDS011;19126;47.472;7.850;2023-04-03T11:40:53;3.85;;;2.42;;
32760;SDS011;19126;47.472;7.850;2023-04-03T11:43:24;2.75;;;2.53;;
32760;SDS011;19126;47.472;7.850;2023-04-03T11:45:55;2.33;;;2.13;;
32760;SDS011;19126;47.472;7.850;2023-04-03T11:48:42;3.28;;;2.47;;
32760;SDS011;19126;47.472;7.850;2023-04-03T11:57:22;3.22;;;2.45;;
32760;SDS011;19126;47.472;7.850;2023-04-03T12:00:48;6.88;;;2.40;;
32760;SDS011;19126;47.472;7.850;2023-04-03T12:12:55;3.75;;;2.72;;
32760;SDS011;19126;47.472;7.850;2023-04-03T12:18:31;4.15;;;3.05;;
32760;SDS011;19126;47.472;7.850;2023-04-03T12:21:09;3.28;;;2.58;;
32760;SDS011;19126;47.472;7.850;2023-04-03T12:26:28;3.72;;;3.10;;
32760;SDS011;19126;47.472;7.850;2023-04-03T12:29:02;2.78;;;2.53;;
32760;SDS011;19126;47.472;7.850;2023-04-03T12:31:48;2.92;;;2.53;;
32760;SDS011;19126;47.472;7.850;2023-04-03T12:34:38;3.63;;;2.85;;
32760;SDS011;19126;47.472;7.850;2023-04-03T12:37:21;4.38;;;2.72;;
32760;SDS011;19126;47.472;7.850;2023-04-03T12:40:07;4.63;;;2.97;;
32760;SDS011;19126;47.472;7.850;2023-04-03T12:42:55;4.03;;;3.22;;
32760;SDS011;19126;47.472;7.850;2023-04-03T12:45:49;4.03;;;3.05;;
32760;SDS011;19126;47.472;7.850;2023-04-03T12:48:27;6.47;;;2.55;;
32760;SDS011;19126;47.472;7.850;2023-04-03T12:50:57;3.90;;;2.92;;
32760;SDS011;19126;47.472;7.850;2023-04-03T12:53:26;3.38;;;2.50;;
32760;SDS011;19126;47.472;7.850;2023-04-03T12:56:18;3.85;;;3.05;;
32760;SDS011;19126;47.472;7.850;2023-04-03T12:58:48;9.50;;;3.03;;
32760;SDS011;19126;47.472;7.850;2023-04-03T13:01:20;4.05;;;3.10;;
32760;SDS011;19126;47.472;7.850;2023-04-03T13:03:52;5.03;;;2.95;;
32760;SDS011;19126;47.472;7.850;2023-04-03T13:08:52;4.95;;;3.05;;
32760;SDS011;19126;47.472;7.850;2023-04-03T13:11:23;3.35;;;2.60;;
32760;SDS011;19126;47.472;7.850;2023-04-03T13:13:55;4.53;;;3.20;;
32760;SDS011;19126;47.472;7.850;2023-04-03T13:16:24;4.97;;;2.63;;
32760;SDS011;19126;47.472;7.850;2023-04-03T13:18:53;2.85;;;2.40;;
32760;SDS011;19126;47.472;7.850;2023-04-03T13:21:22;3.00;;;2.70;;
32760;SDS011;19126;47.472;7.850;2023-04-03T13:23:53;4.47;;;2.90;;
32760;SDS011;19126;47.472;7.850;2023-04-03T13:26:24;5.25;;;2.88;;
32760;SDS011;19126;47.472;7.850;2023-04-03T13:28:54;4.43;;;3.00;;
32760;SDS011;19126;47.472;7.850;2023-04-03T13:31:26;4.28;;;2.60;;
32760;SDS011;19126;47.472;7.850;2023-04-03T13:34:01;3.42;;;2.58;;
32760;SDS011;19126;47.472;7.850;2023-04-03T13:36:33;5.95;;;3.10;;
32760;SDS011;19126;47.472;7.850;2023-04-03T13:39:05;5.05;;;2.65;;
32760;SDS011;19126;47.472;7.850;2023-04-03T13:41:47;5.72;;;3.22;;
32760;SDS011;19126;47.472;7.850;2023-04-03T13:44:28;4.40;;;2.90;;
32760;SDS011;19126;47.472;7.850;2023-04-03T13:47:00;5.82;;;3.08;;
32760;SDS011;19126;47.472;7.850;2023-04-03T13:49:44;3.15;;;2.78;;
32760;SDS011;19126;47.472;7.850;2023-04-03T13:52:26;5.15;;;3.10;;
32760;SDS011;19126;47.472;7.850;2023-04-03T13:55:00;3.80;;;2.78;;
32760;SDS011;19126;47.472;7.850;2023-04-03T13:57:47;5.65;;;3.03;;
32760;SDS011;19126;47.472;7.850;2023-04-03T14:00:26;4.53;;;3.13;;
32760;SDS011;19126;47.472;7.850;2023-04-03T14:02:59;6.82;;;3.50;;
32760;SDS011;19126;47.472;7.850;2023-04-03T14:05:28;5.00;;;2.97;;
32760;SDS011;19126;47.472;7.850;2023-04-03T14:07:56;3.65;;;2.78;;
32760;SDS011;19126;47.472;7.850;2023-04-03T14:10:24;3.92;;;2.95;;
32760;SDS011;19126;47.472;7.850;2023-04-03T14:12:51;3.75;;;2.92;;
32760;SDS011;19126;47.472;7.850;2023-04-03T14:15:22;3.15;;;2.85;;
32760;SDS011;19126;47.472;7.850;2023-04-03T14:17:53;5.03;;;3.20;;
32760;SDS011;19126;47.472;7.850;2023-04-03T14:20:24;7.05;;;3.28;;
32760;SDS011;19126;47.472;7.850;2023-04-03T14:22:54;4.85;;;2.65;;
32760;SDS011;19126;47.472;7.850;2023-04-03T14:25:22;4.22;;;3.03;;
32760;SDS011;19126;47.472;7.850;2023-04-03T14:27:51;4.10;;;2.78;;
32760;SDS011;19126;47.472;7.850;2023-04-03T14:30:20;3.95;;;3.00;;
32760;SDS011;19126;47.472;7.850;2023-04-03T14:32:50;3.85;;;3.13;;
32760;SDS011;19126;47.472;7.850;2023-04-03T14:35:18;8.73;;;2.83;;
32760;SDS011;19126;47.472;7.850;2023-04-03T14:37:46;4.20;;;2.70;;
32760;SDS011;19126;47.472;7.850;2023-04-03T14:40:17;4.70;;;2.85;;
32760;SDS011;19126;47.472;7.850;2023-04-03T14:42:48;8.02;;;2.97;;
32760;SDS011;19126;47.472;7.850;2023-04-03T14:45:17;8.02;;;3.25;;
32760;SDS011;19126;47.472;7.850;2023-04-03T14:47:46;5.15;;;3.25;;
32760;SDS011;19126;47.472;7.850;2023-04-03T14:50:17;4.15;;;3.10;;
32760;SDS011;19126;47.472;7.850;2023-04-03T14:52:48;5.53;;;2.97;;
32760;SDS011;19126;47.472;7.850;2023-04-03T14:55:20;5.63;;;3.20;;
32760;SDS011;19126;47.472;7.850;2023-04-03T14:57:50;5.35;;;3.40;;
32760;SDS011;19126;47.472;7.850;2023-04-03T15:00:18;4.57;;;2.83;;
32760;SDS011;19126;47.472;7.850;2023-04-03T15:02:48;5.88;;;3.38;;
32760;SDS011;19126;47.472;7.850;2023-04-03T15:05:16;4.97;;;3.22;;
32760;SDS011;19126;47.472;7.850;2023-04-03T15:07:45;4.03;;;3.00;;
32760;SDS011;19126;47.472;7.850;2023-04-03T15:10:17;4.70;;;3.17;;
32760;SDS011;19126;47.472;7.850;2023-04-03T15:12:48;6.38;;;3.60;;
32760;SDS011;19126;47.472;7.850;2023-04-03T15:15:17;5.63;;;3.78;;
32760;SDS011;19126;47.472;7.850;2023-04-03T15:17:47;5.32;;;2.85;;
32760;SDS011;19126;47.472;7.850;2023-04-03T15:20:22;4.35;;;3.08;;
32760;SDS011;19126;47.472;7.850;2023-04-03T15:22:52;4.65;;;2.88;;
32760;SDS011;19126;47.472;7.850;2023-04-03T15:25:22;3.20;;;2.67;;
32760;SDS011;19126;47.472;7.850;2023-04-03T15:27:50;5.15;;;3.15;;
32760;SDS011;19126;47.472;7.850;2023-04-03T15:30:19;5.15;;;2.75;;
32760;SDS011;19126;47.472;7.850;2023-04-03T15:32:47;4.35;;;2.92;;
32760;SDS011;19126;47.472;7.850;2023-04-03T15:35:15;8.80;;;3.08;;
32760;SDS011;19126;47.472;7.850;2023-04-03T15:37:42;3.83;;;3.25;;
32760;SDS011;19126;47.472;7.850;2023-04-03T15:40:10;4.63;;;3.00;;
32760;SDS011;19126;47.472;7.850;2023-04-03T15:42:39;8.68;;;2.92;;
32760;SDS011;19126;47.472;7.850;2023-04-03T15:45:07;4.05;;;2.78;;
32760;SDS011;19126;47.472;7.850;2023-04-03T15:47:35;4.88;;;2.75;;
32760;SDS011;19126;47.472;7.850;2023-04-03T15:50:06;4.78;;;2.92;;
32760;SDS011;19126;47.472;7.850;2023-04-03T15:52:35;4.00;;;2.80;;
32760;SDS011;19126;47.472;7.850;2023-04-03T15:55:02;4.13;;;2.70;;
32760;SDS011;19126;47.472;7.850;2023-04-03T15:57:31;3.85;;;2.63;;
32760;SDS011;19126;47.472;7.850;2023-04-03T15:59:59;3.40;;;2.65;;